Time;durP1;ratioP1;P1;durP2;ratioP2;P2;SDS_P1;SDS_P2;PMS_P1;PMS_P2;Temp;Humidity;BMP_temperature;BMP_pressure;BME280_temperature;BME280_humidity;BME280_pressure;Samples;Min_cycle;Max_cycle;Signal;HPM_P1;HPM_P2
2022/03/26 00:00:34;;;;;;;9.52;8.55;;;20.40;42.00;;;;;;4994326;28;20209;-71
2022/03/26 00:03:15;;;;;;;13.07;11.15;;;20.40;42.20;;;;;;4996112;28;20244;-71
2022/03/26 00:05:43;;;;;;;11.73;10.50;;;20.40;41.90;;;;;;5010776;28;20188;-72
2022/03/26 00:08:09;;;;;;;12.50;11.20;;;20.40;41.90;;;;;;4994417;28;20189;-72
2022/03/26 00:10:36;;;;;;;12.70;11.00;;;20.40;41.90;;;;;;4978122;28;20251;-72
2022/03/26 00:13:03;;;;;;;10.82;9.68;;;20.40;42.00;;;;;;4994786;28;20191;-71
2022/03/26 00:15:29;;;;;;;11.23;10.07;;;20.40;41.90;;;;;;4995229;28;20189;-72
2022/03/26 00:17:55;;;;;;;9.43;8.52;;;20.40;41.90;;;;;;4994809;28;20204;-72
2022/03/26 00:20:21;;;;;;;9.73;8.73;;;20.40;41.90;;;;;;5010947;28;20185;-71
2022/03/26 00:22:47;;;;;;;10.05;9.05;;;20.40;42.00;;;;;;4994196;28;20220;-72
2022/03/26 00:25:16;;;;;;;9.73;8.73;;;20.40;42.00;;;;;;4995236;28;20235;-72
2022/03/26 00:27:42;;;;;;;9.38;8.48;;;20.40;41.90;;;;;;4995506;28;20251;-72
2022/03/26 00:30:11;;;;;;;9.10;8.25;;;20.40;41.90;;;;;;4995090;28;20220;-71
2022/03/26 00:32:38;;;;;;;9.25;8.35;;;20.40;41.90;;;;;;4994377;28;20187;-72
2022/03/26 00:35:08;;;;;;;9.63;8.65;;;20.40;42.00;;;;;;4994395;28;20184;-72
2022/03/26 00:37:33;;;;;;;8.80;8.00;;;20.40;41.90;;;;;;4994645;28;20188;-72
2022/03/26 00:39:59;;;;;;;9.50;8.60;;;20.40;41.90;;;;;;5011599;28;20279;-72
2022/03/26 00:42:25;;;;;;;9.52;8.27;;;20.40;42.00;;;;;;4995580;28;20292;-71
2022/03/26 00:44:51;;;;;;;10.02;9.02;;;20.40;42.00;;;;;;4994964;28;20180;-72
2022/03/26 00:47:16;;;;;;;10.15;9.13;;;20.40;42.00;;;;;;4995045;28;20228;-72
2022/03/26 00:49:42;;;;;;;13.18;10.05;;;20.40;42.00;;;;;;5011114;28;20177;-72
2022/03/26 00:52:08;;;;;;;11.27;10.10;;;20.40;41.90;;;;;;5010908;28;20547;-72
2022/03/26 00:54:34;;;;;;;10.60;9.55;;;20.40;42.00;;;;;;4993107;28;20185;-72
2022/03/26 00:57:00;;;;;;;11.30;10.20;;;20.40;41.90;;;;;;5009983;28;20188;-71
2022/03/26 00:59:26;;;;;;;11.23;9.68;;;20.40;41.90;;;;;;4993401;28;20228;-72
2022/03/26 01:01:52;;;;;;;12.00;10.70;;;20.40;41.90;;;;;;5038271;22;20243;-68
2022/03/26 01:04:18;;;;;;;11.60;10.13;;;20.40;41.90;;;;;;5030891;28;20254;-68
2022/03/26 01:06:44;;;;;;;11.48;10.40;;;20.30;41.80;;;;;;5030938;28;20219;-68
2022/03/26 01:09:10;;;;;;;9.80;8.80;;;20.30;41.80;;;;;;5030997;28;20194;-68
2022/03/26 01:11:37;;;;;;;10.95;9.45;;;20.30;41.90;;;;;;5011002;28;20204;-68
2022/03/26 01:14:02;;;;;;;9.13;8.23;;;20.30;41.80;;;;;;5011216;28;20318;-68
2022/03/26 01:16:30;;;;;;;9.90;8.63;;;20.30;41.80;;;;;;5012335;28;20267;-68
2022/03/26 01:18:56;;;;;;;9.07;8.20;;;20.30;41.80;;;;;;5011164;28;20198;-68
2022/03/26 01:21:22;;;;;;;10.75;8.93;;;20.30;41.80;;;;;;5010950;28;20208;-68
2022/03/26 01:23:49;;;;;;;9.48;8.48;;;20.40;41.90;;;;;;5011433;28;20184;-68
2022/03/26 01:26:17;;;;;;;9.38;8.43;;;20.30;41.80;;;;;;5010903;28;20239;-68
2022/03/26 01:28:43;;;;;;;9.35;8.43;;;20.30;41.80;;;;;;5013421;28;20644;-68
2022/03/26 01:31:10;;;;;;;9.07;8.18;;;20.30;41.80;;;;;;5031675;28;20203;-68
2022/03/26 01:33:36;;;;;;;8.82;7.93;;;20.30;41.80;;;;;;5015282;28;20192;-68
2022/03/26 01:36:02;;;;;;;9.45;8.55;;;20.30;41.80;;;;;;5015118;28;20198;-67
2022/03/26 01:38:28;;;;;;;8.82;7.95;;;20.30;41.90;;;;;;5015282;28;20184;-68
2022/03/26 01:40:54;;;;;;;9.43;8.52;;;20.30;41.90;;;;;;5031241;28;20227;-68
2022/03/26 01:43:20;;;;;;;10.43;9.32;;;20.30;41.90;;;;;;5031541;28;20660;-69
2022/03/26 01:45:45;;;;;;;10.05;9.05;;;20.30;41.90;;;;;;5014967;28;20176;-68
2022/03/26 01:48:11;;;;;;;10.80;9.70;;;20.30;41.80;;;;;;5031312;28;20644;-68
2022/03/26 01:50:39;;;;;;;10.23;9.15;;;20.30;41.80;;;;;;5031343;28;20195;-68
2022/03/26 01:53:05;;;;;;;10.85;9.75;;;20.30;41.90;;;;;;5014714;28;20188;-68
2022/03/26 01:55:30;;;;;;;11.48;10.30;;;20.30;41.80;;;;;;5015819;28;20191;-68
2022/03/26 01:57:57;;;;;;;11.35;10.25;;;20.30;41.80;;;;;;5014584;28;20184;-68
2022/03/26 02:00:22;;;;;;;10.80;9.70;;;20.30;41.80;;;;;;5014439;28;20635;-68
2022/03/26 02:02:48;;;;;;;10.85;9.75;;;20.30;41.80;;;;;;5014152;28;20219;-68
2022/03/26 02:05:17;;;;;;;10.10;9.10;;;20.30;41.60;;;;;;5031011;28;20192;-68
2022/03/26 02:07:46;;;;;;;10.00;8.80;;;20.30;41.80;;;;;;5015567;28;20270;-66
2022/03/26 02:10:15;;;;;;;9.38;8.48;;;20.30;41.90;;;;;;5015468;28;20177;-68
2022/03/26 02:12:42;;;;;;;9.35;8.48;;;20.30;41.80;;;;;;5015455;28;20203;-68
2022/03/26 02:15:09;;;;;;;9.60;8.70;;;20.30;41.90;;;;;;5014619;28;20211;-68
2022/03/26 02:17:36;;;;;;;9.35;8.45;;;20.30;41.80;;;;;;5014430;28;20238;-68
2022/03/26 02:20:09;;;;;;;8.20;7.50;;;20.30;41.90;;;;;;5014379;28;20198;-68
2022/03/26 02:22:37;;;;;;;8.85;7.93;;;20.30;41.80;;;;;;5030681;28;20302;-68
2022/03/26 02:25:05;;;;;;;8.85;8.00;;;20.30;41.90;;;;;;5014096;28;20310;-68
2022/03/26 02:27:32;;;;;;;8.90;8.00;;;20.30;41.90;;;;;;5014282;28;20272;-68
2022/03/26 02:29:58;;;;;;;9.60;8.70;;;20.30;41.80;;;;;;5030678;28;20204;-68
2022/03/26 02:32:26;;;;;;;9.57;8.60;;;20.30;41.80;;;;;;5030336;28;20643;-68
2022/03/26 02:34:53;;;;;;;9.85;8.93;;;20.30;41.80;;;;;;5014013;28;20271;-68
2022/03/26 02:37:19;;;;;;;11.93;10.65;;;20.30;41.80;;;;;;5030360;28;20643;-68
2022/03/26 02:39:45;;;;;;;10.02;8.80;;;20.30;41.80;;;;;;5014584;28;20180;-68
2022/03/26 02:42:13;;;;;;;9.98;8.98;;;20.30;41.80;;;;;;5013512;28;20299;-68
2022/03/26 02:44:41;;;;;;;10.68;9.27;;;20.30;41.90;;;;;;5030355;28;20230;-68
2022/03/26 02:47:10;;;;;;;10.68;9.57;;;20.30;41.80;;;;;;5013522;28;20291;-68
2022/03/26 02:49:35;;;;;;;10.02;9.02;;;20.30;41.90;;;;;;5030267;28;20208;-68
2022/03/26 02:52:01;;;;;;;10.35;9.25;;;20.30;41.80;;;;;;5013433;28;20238;-68
2022/03/26 02:54:27;;;;;;;9.82;8.77;;;20.30;41.90;;;;;;5030015;28;20558;-68
2022/03/26 02:56:57;;;;;;;9.60;8.45;;;20.30;41.90;;;;;;5013319;28;20198;-68
2022/03/26 02:59:23;;;;;;;9.10;8.20;;;20.30;41.80;;;;;;4997152;28;20202;-68
2022/03/26 03:01:52;;;;;;;8.40;7.57;;;20.30;41.80;;;;;;5013440;28;20679;-68
2022/03/26 03:04:19;;;;;;;8.98;8.07;;;20.20;41.80;;;;;;5013185;28;20196;-67
2022/03/26 03:06:45;;;;;;;9.10;8.27;;;20.20;41.80;;;;;;5013275;28;20216;-68
2022/03/26 03:09:11;;;;;;;8.60;7.70;;;20.20;41.80;;;;;;5014626;28;20334;-68
2022/03/26 03:11:36;;;;;;;9.55;8.55;;;20.20;41.80;;;;;;5013307;28;20207;-68
2022/03/26 03:14:04;;;;;;;9.43;8.30;;;20.30;41.80;;;;;;5013164;28;20655;-68
2022/03/26 03:16:32;;;;;;;9.38;8.40;;;20.30;41.80;;;;;;5010764;28;20189;-68
2022/03/26 03:18:58;;;;;;;9.80;8.48;;;20.20;41.80;;;;;;5009855;28;20563;-68
2022/03/26 03:21:24;;;;;;;9.55;8.65;;;20.30;41.80;;;;;;4993331;28;20676;-68
2022/03/26 03:23:50;;;;;;;9.35;8.35;;;20.30;41.90;;;;;;4993769;28;20195;-68
2022/03/26 03:26:15;;;;;;;10.18;9.07;;;20.20;41.80;;;;;;4993737;28;20217;-68
2022/03/26 03:28:42;;;;;;;10.52;9.43;;;20.20;41.80;;;;;;5009740;28;20279;-67
2022/03/26 03:31:09;;;;;;;10.52;9.43;;;20.20;41.80;;;;;;4993173;28;20208;-68
2022/03/26 03:33:35;;;;;;;11.05;9.50;;;20.20;41.80;;;;;;4993301;28;20242;-68
2022/03/26 03:36:01;;;;;;;10.75;9.65;;;20.20;41.80;;;;;;4993253;28;20262;-68
2022/03/26 03:38:27;;;;;;;11.45;9.80;;;20.30;41.80;;;;;;4993400;28;20192;-68
2022/03/26 03:40:53;;;;;;;10.63;9.48;;;20.20;41.80;;;;;;5009326;28;20209;-68
2022/03/26 03:43:19;;;;;;;10.15;9.13;;;20.20;41.80;;;;;;5009453;28;20272;-67
2022/03/26 03:45:45;;;;;;;10.85;8.70;;;20.20;41.80;;;;;;4992952;28;20327;-68
2022/03/26 03:48:11;;;;;;;8.82;8.02;;;20.20;41.80;;;;;;5022990;28;20188;-67
2022/03/26 03:50:37;;;;;;;8.98;8.07;;;20.20;41.80;;;;;;5024766;28;20184;-68
2022/03/26 03:53:03;;;;;;;8.77;7.88;;;20.20;41.80;;;;;;5028717;28;20188;-68
2022/03/26 03:55:28;;;;;;;10.35;9.07;;;20.20;41.80;;;;;;5011016;28;20187;-68
2022/03/26 03:57:55;;;;;;;8.73;7.82;;;20.20;41.80;;;;;;4995731;28;20180;-68
2022/03/26 04:00:20;;;;;;;9.30;8.30;;;20.20;41.80;;;;;;5012688;28;20225;-68
2022/03/26 04:02:46;;;;;;;8.45;7.55;;;20.20;41.80;;;;;;5028474;28;20223;-67
2022/03/26 04:05:13;;;;;;;9.02;8.13;;;20.20;41.80;;;;;;5012206;28;20200;-67
2022/03/26 04:07:46;;;;;;;9.40;8.40;;;20.20;41.80;;;;;;5012031;28;20218;-67
2022/03/26 04:10:13;;;;;;;9.38;8.48;;;20.20;41.80;;;;;;5013803;28;20173;-68
2022/03/26 04:12:42;;;;;;;9.30;8.40;;;20.20;41.80;;;;;;4995790;28;20207;-67
2022/03/26 04:15:12;;;;;;;11.07;9.35;;;20.20;41.80;;;;;;5012166;28;20184;-68
2022/03/26 04:17:38;;;;;;;11.60;9.95;;;20.20;41.80;;;;;;5012270;28;20354;-68
2022/03/26 04:20:08;;;;;;;10.93;9.57;;;20.20;41.80;;;;;;5011930;28;20216;-68
2022/03/26 04:22:35;;;;;;;11.45;10.23;;;20.20;41.80;;;;;;4995486;28;20216;-68
2022/03/26 04:25:02;;;;;;;11.23;10.13;;;20.20;41.80;;;;;;5013455;28;20245;-68
2022/03/26 04:27:28;;;;;;;12.27;10.98;;;20.20;41.80;;;;;;5013051;28;20192;-68
2022/03/26 04:29:54;;;;;;;12.27;10.50;;;20.20;41.80;;;;;;5028410;28;20237;-67
2022/03/26 04:32:19;;;;;;;11.20;9.90;;;20.20;41.70;;;;;;5011439;28;20697;-67
2022/03/26 04:34:45;;;;;;;11.13;9.93;;;20.20;41.80;;;;;;5011839;28;20180;-68
2022/03/26 04:37:11;;;;;;;10.63;9.48;;;20.20;41.60;;;;;;5012853;28;20660;-68
2022/03/26 04:39:37;;;;;;;10.30;8.98;;;20.10;41.70;;;;;;5012970;28;20545;-67
2022/03/26 04:42:03;;;;;;;9.90;8.90;;;20.20;41.80;;;;;;5011823;28;20206;-69
2022/03/26 04:44:29;;;;;;;9.73;8.73;;;20.20;41.80;;;;;;5011933;28;20683;-65
2022/03/26 04:46:55;;;;;;;9.60;8.70;;;20.20;41.80;;;;;;5011472;28;20216;-68
2022/03/26 04:49:20;;;;;;;9.57;8.68;;;20.10;41.70;;;;;;5011589;28;20200;-68
2022/03/26 04:51:46;;;;;;;9.10;8.20;;;20.10;41.70;;;;;;5011196;28;20203;-67
2022/03/26 04:54:12;;;;;;;9.60;8.00;;;20.10;41.70;;;;;;5011654;28;20192;-68
2022/03/26 04:56:38;;;;;;;9.95;8.82;;;20.10;41.70;;;;;;5011748;28;20183;-68
2022/03/26 04:59:04;;;;;;;10.20;9.20;;;20.10;41.70;;;;;;4995461;28;20188;-68
2022/03/26 05:01:30;;;;;;;10.05;9.05;;;20.10;41.70;;;;;;5010208;28;20216;-67
2022/03/26 05:03:56;;;;;;;9.70;8.70;;;20.10;41.70;;;;;;5011372;28;20665;-67
2022/03/26 05:06:22;;;;;;;9.80;8.80;;;20.10;41.70;;;;;;5011532;28;20262;-68
2022/03/26 05:08:48;;;;;;;10.05;9.05;;;20.10;41.70;;;;;;5011441;28;20200;-67
2022/03/26 05:11:15;;;;;;;10.73;9.63;;;20.10;41.70;;;;;;5012370;28;20208;-68
2022/03/26 05:13:41;;;;;;;11.43;10.23;;;20.20;41.80;;;;;;5011334;28;20180;-68
2022/03/26 05:16:07;;;;;;;14.93;12.45;;;20.10;41.70;;;;;;5011551;28;20195;-69
2022/03/26 05:18:35;;;;;;;14.27;12.30;;;20.10;41.70;;;;;;5028086;28;20184;-68
2022/03/26 05:21:01;;;;;;;14.30;11.98;;;20.10;41.60;;;;;;5027565;28;20214;-68
2022/03/26 05:23:27;;;;;;;12.75;11.43;;;20.10;41.50;;;;;;5011479;28;20286;-67
2022/03/26 05:25:53;;;;;;;13.02;11.75;;;20.10;41.60;;;;;;5027614;28;20223;-67
2022/03/26 05:28:19;;;;;;;12.98;11.63;;;20.10;41.60;;;;;;5011404;28;20216;-67
2022/03/26 05:30:51;;;;;;;13.18;11.55;;;20.10;41.50;;;;;;5012360;28;20219;-67
2022/03/26 05:33:17;;;;;;;12.13;10.50;;;20.10;41.50;;;;;;5027503;28;20250;-67
2022/03/26 05:35:43;;;;;;;10.70;9.60;;;20.10;41.60;;;;;;5012286;28;20266;-67
2022/03/26 05:38:10;;;;;;;11.40;9.70;;;20.10;41.70;;;;;;5011119;28;20279;-67
2022/03/26 05:40:36;;;;;;;11.02;9.23;;;20.10;41.70;;;;;;5011141;28;20237;-68
2022/03/26 05:43:02;;;;;;;10.55;9.45;;;20.10;41.70;;;;;;5027425;28;20176;-69
2022/03/26 05:45:29;;;;;;;11.18;9.75;;;20.10;41.70;;;;;;5010994;28;20180;-68
2022/03/26 05:48:02;;;;;;;10.13;9.23;;;20.10;41.70;;;;;;5011250;28;20216;-67
2022/03/26 05:50:29;;;;;;;11.02;9.65;;;20.10;41.70;;;;;;5011178;28;20188;-67
2022/03/26 05:52:56;;;;;;;10.25;9.18;;;20.10;41.70;;;;;;5011814;28;20215;-67
2022/03/26 05:55:21;;;;;;;12.07;10.32;;;20.10;41.70;;;;;;5010924;28;20195;-67
2022/03/26 05:57:47;;;;;;;10.73;9.48;;;20.10;41.70;;;;;;5010890;28;20188;-67
2022/03/26 06:00:14;;;;;;;10.65;9.48;;;20.10;41.70;;;;;;5010843;28;20203;-67
2022/03/26 06:02:40;;;;;;;11.82;10.63;;;20.10;41.70;;;;;;5010633;28;20299;-67
2022/03/26 06:05:06;;;;;;;12.60;11.30;;;20.10;41.70;;;;;;5027299;28;20198;-67
2022/03/26 06:07:32;;;;;;;11.45;10.25;;;20.10;41.70;;;;;;5010880;28;20295;-66
2022/03/26 06:09:58;;;;;;;12.50;11.25;;;20.10;41.70;;;;;;5011044;28;20180;-67
2022/03/26 06:12:24;;;;;;;13.02;11.63;;;20.10;41.70;;;;;;5010831;28;20278;-67
2022/03/26 06:14:50;;;;;;;13.00;11.70;;;20.10;41.70;;;;;;5029770;28;20302;-67
2022/03/26 06:17:16;;;;;;;12.88;11.52;;;20.10;41.70;;;;;;5014524;28;20188;-67
2022/03/26 06:19:43;;;;;;;14.48;12.18;;;20.10;41.70;;;;;;5030670;28;20188;-67
2022/03/26 06:22:10;;;;;;;13.73;11.38;;;20.10;41.50;;;;;;5013921;28;20362;-67
2022/03/26 06:24:36;;;;;;;13.15;11.27;;;20.10;41.50;;;;;;5030788;28;20191;-67
2022/03/26 06:27:02;;;;;;;11.38;10.07;;;20.10;41.70;;;;;;5013918;28;20239;-67
2022/03/26 06:29:28;;;;;;;11.10;9.68;;;20.10;41.70;;;;;;5015231;28;20176;-67
2022/03/26 06:31:54;;;;;;;11.27;10.15;;;20.10;41.70;;;;;;5030299;28;20262;-67
2022/03/26 06:34:23;;;;;;;11.18;9.85;;;20.10;41.70;;;;;;5030316;28;20229;-67
2022/03/26 06:36:49;;;;;;;13.32;10.00;;;20.10;41.70;;;;;;5013868;28;20563;-67
2022/03/26 06:39:15;;;;;;;10.38;9.38;;;20.10;41.70;;;;;;5014068;28;20196;-67
2022/03/26 06:41:41;;;;;;;10.68;9.57;;;20.00;41.60;;;;;;5013435;28;20211;-67
2022/03/26 06:44:08;;;;;;;10.95;9.38;;;20.00;41.60;;;;;;5030183;28;20554;-67
2022/03/26 06:46:37;;;;;;;12.63;10.00;;;20.10;41.70;;;;;;5030152;28;20215;-67
2022/03/26 06:49:04;;;;;;;10.82;9.73;;;20.10;41.70;;;;;;5013631;28;20215;-67
2022/03/26 06:51:31;;;;;;;11.32;10.15;;;20.10;41.70;;;;;;5013429;28;20668;-68
2022/03/26 06:53:58;;;;;;;11.27;9.77;;;20.10;41.70;;;;;;5030169;28;20173;-67
2022/03/26 06:56:24;;;;;;;12.70;10.30;;;20.10;41.70;;;;;;5012991;28;20188;-67
2022/03/26 06:58:50;;;;;;;12.00;10.40;;;20.10;41.70;;;;;;5021470;28;20211;-67
2022/03/26 07:01:16;;;;;;;12.88;10.77;;;20.10;41.70;;;;;;5067923;22;20265;-69
2022/03/26 07:03:41;;;;;;;13.20;11.75;;;20.10;41.70;;;;;;5005649;28;20269;-70
2022/03/26 07:06:08;;;;;;;15.50;12.98;;;20.10;41.70;;;;;;5002374;28;20195;-70
2022/03/26 07:08:33;;;;;;;15.02;13.43;;;20.20;41.80;;;;;;5027538;28;20192;-71
2022/03/26 07:10:59;;;;;;;14.18;11.57;;;20.20;41.50;;;;;;5026600;28;20184;-69
2022/03/26 07:13:25;;;;;;;13.43;10.77;;;20.20;41.40;;;;;;5013767;28;20593;-71
2022/03/26 07:15:51;;;;;;;12.27;11.02;;;20.20;41.40;;;;;;4998636;28;20196;-70
2022/03/26 07:18:16;;;;;;;12.90;10.82;;;20.30;41.40;;;;;;4998668;28;20191;-70
2022/03/26 07:20:42;;;;;;;11.50;10.40;;;20.30;41.30;;;;;;4998764;28;20274;-71
2022/03/26 07:23:08;;;;;;;13.20;11.80;;;20.30;41.30;;;;;;4998411;28;20265;-70
2022/03/26 07:25:34;;;;;;;11.07;9.88;;;20.30;41.20;;;;;;5015111;28;20211;-70
2022/03/26 07:28:01;;;;;;;12.32;10.77;;;20.40;41.30;;;;;;4998446;28;20251;-70
2022/03/26 07:30:27;;;;;;;12.27;11.02;;;20.40;41.20;;;;;;4998536;28;20226;-70
2022/03/26 07:32:53;;;;;;;11.98;10.63;;;20.40;41.20;;;;;;4982492;28;20223;-70
2022/03/26 07:35:18;;;;;;;11.52;10.43;;;20.50;41.20;;;;;;5015714;28;20203;-70
2022/03/26 07:37:44;;;;;;;12.23;10.93;;;20.50;41.10;;;;;;5006912;28;20202;-70
2022/03/26 07:40:12;;;;;;;11.93;10.73;;;20.50;41.10;;;;;;5011726;28;20191;-70
2022/03/26 07:42:38;;;;;;;11.90;10.70;;;20.50;41.10;;;;;;5018406;28;20270;-70
2022/03/26 07:45:05;;;;;;;12.10;11.00;;;20.50;41.10;;;;;;5025287;28;20204;-71
2022/03/26 07:47:34;;;;;;;11.70;10.50;;;20.50;41.10;;;;;;4998552;28;20274;-71
2022/03/26 07:50:00;;;;;;;11.13;9.95;;;20.50;41.10;;;;;;4999057;28;20184;-71
2022/03/26 07:52:26;;;;;;;12.00;10.80;;;20.50;41.10;;;;;;4998766;28;20207;-70
2022/03/26 07:54:51;;;;;;;11.15;10.05;;;20.60;41.20;;;;;;4999692;28;20188;-71
2022/03/26 07:57:17;;;;;;;10.35;9.25;;;20.60;41.10;;;;;;4999448;28;20684;-70
2022/03/26 07:59:43;;;;;;;10.70;9.70;;;20.60;41.20;;;;;;4999122;28;20191;-71
2022/03/26 08:02:09;;;;;;;10.88;9.77;;;20.60;41.20;;;;;;4999430;28;20234;-71
2022/03/26 08:04:35;;;;;;;11.60;9.38;;;20.60;41.20;;;;;;5018021;28;20263;-71
2022/03/26 08:07:01;;;;;;;13.43;10.23;;;20.60;41.20;;;;;;4998352;28;20230;-70
2022/03/26 08:09:27;;;;;;;11.48;9.55;;;20.60;41.20;;;;;;5014010;28;20192;-70
2022/03/26 08:11:53;;;;;;;12.40;10.40;;;20.60;41.10;;;;;;5014338;28;20204;-70
2022/03/26 08:14:18;;;;;;;11.00;9.93;;;20.60;41.20;;;;;;4997687;28;20195;-71
2022/03/26 08:16:44;;;;;;;10.90;9.80;;;20.70;41.20;;;;;;4997614;28;20190;-70
2022/03/26 08:19:10;;;;;;;11.88;10.23;;;20.70;41.30;;;;;;4998235;28;20630;-70
2022/03/26 08:21:35;;;;;;;11.80;10.60;;;20.70;41.20;;;;;;4998119;28;20222;-70
2022/03/26 08:24:02;;;;;;;10.57;9.13;;;20.70;41.30;;;;;;5014327;28;20195;-70
2022/03/26 08:26:29;;;;;;;9.82;8.82;;;20.70;41.40;;;;;;5013808;28;20204;-70
2022/03/26 08:29:00;;;;;;;11.00;9.80;;;20.70;41.30;;;;;;4998333;28;20184;-71
2022/03/26 08:31:30;;;;;;;11.23;10.13;;;20.70;41.30;;;;;;4997613;28;20180;-70
2022/03/26 08:33:56;;;;;;;11.45;10.00;;;20.70;41.10;;;;;;4997831;28;20184;-70
2022/03/26 08:36:24;;;;;;;10.68;9.57;;;20.70;41.10;;;;;;4997539;28;20231;-70
2022/03/26 08:38:50;;;;;;;11.02;9.93;;;20.70;41.10;;;;;;4998153;28;20282;-70
2022/03/26 08:41:19;;;;;;;10.98;9.88;;;20.70;41.20;;;;;;4998215;28;20190;-70
2022/03/26 08:43:48;;;;;;;10.73;9.63;;;20.70;41.00;;;;;;4998181;28;20303;-71
2022/03/26 08:46:14;;;;;;;11.85;10.68;;;20.70;41.10;;;;;;4981926;28;20229;-70
2022/03/26 08:48:39;;;;;;;12.25;10.85;;;20.70;41.00;;;;;;5015414;28;20278;-70
2022/03/26 08:51:05;;;;;;;11.75;10.65;;;20.70;41.00;;;;;;4998558;28;20183;-70
2022/03/26 08:53:32;;;;;;;11.75;10.55;;;20.70;41.00;;;;;;4998320;28;20199;-70
2022/03/26 08:55:58;;;;;;;11.77;10.57;;;20.70;40.90;;;;;;4996096;28;20194;-70
2022/03/26 08:58:25;;;;;;;12.30;10.98;;;20.70;41.00;;;;;;5014869;28;20176;-70
2022/03/26 09:00:52;;;;;;;11.65;10.43;;;20.70;40.80;;;;;;5016048;28;20243;-70
2022/03/26 09:03:21;;;;;;;12.30;11.10;;;20.70;40.90;;;;;;5015137;28;20223;-70
2022/03/26 09:05:51;;;;;;;11.43;10.32;;;20.70;40.90;;;;;;4998969;28;20180;-70
2022/03/26 09:08:17;;;;;;;12.82;11.27;;;20.70;40.80;;;;;;5015407;28;20258;-70
2022/03/26 09:10:44;;;;;;;13.02;11.43;;;20.70;40.80;;;;;;5001805;28;20187;-71
2022/03/26 09:13:11;;;;;;;15.07;11.90;;;20.70;40.60;;;;;;5013913;28;20200;-70
2022/03/26 09:15:37;;;;;;;12.10;10.90;;;20.70;40.70;;;;;;4979849;28;20190;-70
2022/03/26 09:18:04;;;;;;;13.90;12.50;;;20.70;40.80;;;;;;5014007;28;20177;-71
2022/03/26 09:20:30;;;;;;;12.85;11.52;;;20.70;40.50;;;;;;5014068;28;20272;-70
2022/03/26 09:22:57;;;;;;;13.32;11.93;;;20.70;40.60;;;;;;4996452;28;20208;-70
2022/03/26 09:25:23;;;;;;;13.57;11.90;;;20.70;40.50;;;;;;5014771;28;20176;-71
2022/03/26 09:27:49;;;;;;;13.85;12.45;;;20.70;40.60;;;;;;4997181;28;20223;-70
2022/03/26 09:30:17;;;;;;;15.13;13.43;;;20.70;40.50;;;;;;4981623;28;20192;-70
2022/03/26 09:32:44;;;;;;;12.98;11.68;;;20.70;40.40;;;;;;4997260;28;20204;-70
2022/03/26 09:35:12;;;;;;;14.13;11.85;;;20.70;40.50;;;;;;4997329;28;20192;-70
2022/03/26 09:37:38;;;;;;;13.00;11.65;;;20.70;40.40;;;;;;4999036;28;20285;-70
2022/03/26 09:40:05;;;;;;;15.00;12.93;;;20.70;40.50;;;;;;4998871;28;20652;-70
2022/03/26 09:42:38;;;;;;;15.30;12.13;;;20.70;40.40;;;;;;4998711;28;20215;-70
2022/03/26 09:45:06;;;;;;;13.35;11.70;;;20.70;40.20;;;;;;5015204;28;20190;-70
2022/03/26 09:47:33;;;;;;;14.45;12.90;;;20.70;40.40;;;;;;4998053;28;20266;-70
2022/03/26 09:50:00;;;;;;;13.45;11.80;;;20.60;40.30;;;;;;5016836;28;20172;-70
2022/03/26 09:52:27;;;;;;;14.60;12.70;;;20.70;40.40;;;;;;5017184;28;20204;-71
2022/03/26 09:54:57;;;;;;;14.07;12.50;;;20.70;40.40;;;;;;5017468;28;20202;-70
2022/03/26 09:57:23;;;;;;;13.60;11.88;;;20.70;40.40;;;;;;5000495;28;20250;-70
2022/03/26 09:59:48;;;;;;;14.07;12.68;;;20.70;40.30;;;;;;5000523;28;20188;-70
2022/03/26 10:02:16;;;;;;;14.02;12.52;;;20.70;40.40;;;;;;4999491;28;20220;-71
2022/03/26 10:04:43;;;;;;;15.20;12.18;;;20.70;40.20;;;;;;5016801;28;20262;-71
2022/03/26 10:07:09;;;;;;;14.15;12.63;;;20.70;40.40;;;;;;4999791;28;20216;-71
2022/03/26 10:09:44;;;;;;;13.40;12.07;;;20.70;40.40;;;;;;5016078;28;20177;-70
2022/03/26 10:12:15;;;;;;;13.05;11.68;;;20.70;40.20;;;;;;5017120;28;20196;-70
2022/03/26 10:14:47;;;;;;;14.13;12.68;;;20.70;40.20;;;;;;5000449;28;20652;-71
2022/03/26 10:17:34;;;;;;;14.43;12.93;;;20.70;40.30;;;;;;4984272;28;20278;-70
2022/03/26 10:20:10;;;;;;;14.65;13.13;;;20.70;40.20;;;;;;4984622;28;20206;-70
2022/03/26 10:22:55;;;;;;;14.35;12.95;;;20.60;40.10;;;;;;4999915;28;20212;-70
2022/03/26 10:25:23;;;;;;;14.75;12.45;;;20.60;40.00;;;;;;5000652;28;20628;-70
2022/03/26 10:27:52;;;;;;;13.18;11.80;;;20.70;40.20;;;;;;5017016;28;20289;-70
2022/03/26 10:33:32;;;;;;;14.35;12.85;;;20.70;40.40;;;;;;5017688;28;20216;-71
2022/03/26 10:36:03;;;;;;;14.27;12.82;;;20.70;40.20;;;;;;5000745;28;20222;-70
2022/03/26 10:38:42;;;;;;;14.40;12.73;;;20.70;40.20;;;;;;5016446;28;20223;-70
2022/03/26 10:41:09;;;;;;;13.43;12.13;;;20.70;40.20;;;;;;5000661;28;20172;-69
2022/03/26 10:43:37;;;;;;;14.43;12.98;;;20.70;40.20;;;;;;5000596;28;20180;-70
2022/03/26 10:46:04;;;;;;;13.73;12.27;;;20.70;40.10;;;;;;4987622;28;20180;-71
2022/03/26 10:48:33;;;;;;;14.38;12.88;;;20.70;40.20;;;;;;5000805;28;20200;-71
2022/03/26 10:51:05;;;;;;;15.23;12.90;;;20.70;40.10;;;;;;4983904;28;20307;-70
2022/03/26 10:53:41;;;;;;;13.68;11.57;;;20.60;40.10;;;;;;4999817;28;20211;-70
2022/03/26 10:56:11;;;;;;;14.50;13.00;;;20.60;40.00;;;;;;4999660;28;20211;-70
2022/03/26 10:58:39;;;;;;;15.13;13.35;;;20.70;39.90;;;;;;4999249;28;20181;-70
2022/03/26 11:01:05;;;;;;;13.82;12.38;;;20.70;39.70;;;;;;4999263;28;20739;-70
2022/03/26 11:03:32;;;;;;;14.35;12.85;;;20.60;39.70;;;;;;4999506;28;20687;-70
2022/03/26 11:05:58;;;;;;;15.50;12.50;;;20.70;40.00;;;;;;5015694;28;20667;-70
2022/03/26 11:08:30;;;;;;;14.25;12.75;;;20.70;40.10;;;;;;4999751;28;20243;-70
2022/03/26 11:10:59;;;;;;;13.32;11.93;;;20.70;40.00;;;;;;4999042;28;20184;-70
2022/03/26 11:13:28;;;;;;;14.77;12.50;;;20.60;40.00;;;;;;4999495;28;20203;-72
2022/03/26 11:16:01;;;;;;;13.93;12.52;;;20.60;40.10;;;;;;4983713;28;20180;-69
2022/03/26 11:19:04;;;;;;;13.15;11.48;;;20.60;39.60;;;;;;4997759;28;20200;-70
2022/03/26 11:21:50;;;;;;;13.60;12.13;;;20.60;39.70;;;;;;4981455;28;20720;-69
2022/03/26 11:24:53;;;;;;;13.75;12.35;;;20.60;39.60;;;;;;4998333;28;20173;-70
2022/03/26 11:27:39;;;;;;;13.82;12.43;;;20.60;39.80;;;;;;4981679;28;20204;-70
2022/03/26 11:30:20;;;;;;;14.18;12.77;;;20.60;39.20;;;;;;4997058;28;20176;-70
2022/03/26 11:32:49;;;;;;;14.68;12.52;;;20.70;39.60;;;;;;4980804;28;20219;-69
2022/03/26 11:35:17;;;;;;;14.20;12.80;;;20.60;39.60;;;;;;4981457;28;20248;-70
2022/03/26 11:37:56;;;;;;;14.82;12.18;;;20.60;39.50;;;;;;4981122;28;20208;-70
2022/03/26 11:40:56;;;;;;;13.02;11.63;;;20.60;40.30;;;;;;4980849;28;20766;-70
2022/03/26 11:43:44;;;;;;;13.57;12.15;;;20.70;39.70;;;;;;4997199;28;20241;-70
2022/03/26 11:52:18;;;;;;;13.57;12.18;;;20.70;39.40;;;;;;4980714;28;20232;-70
2022/03/26 11:54:46;;;;;;;12.98;11.68;;;20.70;39.80;;;;;;4979940;28;20177;-70
2022/03/26 11:57:16;;;;;;;12.98;11.68;;;20.60;39.60;;;;;;4980347;28;20193;-70
2022/03/26 11:59:42;;;;;;;14.00;12.57;;;20.60;39.60;;;;;;4996638;28;20200;-70
2022/03/26 12:02:26;;;;;;;13.88;12.48;;;20.70;39.90;;;;;;4979825;28;20220;-70
2022/03/26 12:06:35;;;;;;;14.52;12.18;;;20.60;39.80;;;;;;4996903;28;20173;-70
2022/03/26 12:08:08;;;;;;;13.45;12.15;;;20.70;39.70;;;;;;4981115;28;20288;-69
2022/03/26 12:10:34;;;;;;;16.35;12.48;;;20.70;39.70;;;;;;4996773;28;20181;-70
2022/03/26 12:13:02;;;;;;;12.88;11.48;;;20.70;39.70;;;;;;4978841;28;20283;-70
2022/03/26 12:15:31;;;;;;;13.20;11.80;;;20.60;39.50;;;;;;4979149;28;20177;-70
2022/03/26 12:18:11;;;;;;;12.77;11.40;;;20.60;39.50;;;;;;4980262;28;20196;-70
2022/03/26 12:20:41;;;;;;;13.48;12.07;;;20.60;39.50;;;;;;4995856;28;20246;-70
2022/03/26 12:23:12;;;;;;;13.90;12.40;;;20.70;39.60;;;;;;4978808;28;20220;-70
2022/03/26 12:25:53;;;;;;;12.75;11.38;;;20.70;39.60;;;;;;4978383;28;20195;-70
2022/03/26 12:28:25;;;;;;;12.57;11.27;;;20.60;39.50;;;;;;4980150;28;20248;-70
2022/03/26 12:30:57;;;;;;;13.48;11.45;;;20.70;39.60;;;;;;4979595;28;20192;-70
2022/03/26 12:33:24;;;;;;;13.00;11.65;;;20.70;39.80;;;;;;4964220;28;20710;-70
2022/03/26 12:35:55;;;;;;;11.90;10.70;;;20.70;39.80;;;;;;4980050;28;20196;-70
2022/03/26 12:38:26;;;;;;;12.25;10.95;;;20.70;39.80;;;;;;4980701;28;20256;-70
2022/03/26 12:40:56;;;;;;;12.15;10.85;;;20.70;39.70;;;;;;4994841;28;20223;-70
2022/03/26 12:43:24;;;;;;;11.75;10.55;;;20.70;39.70;;;;;;4979547;28;20208;-69
2022/03/26 12:45:52;;;;;;;12.18;10.90;;;20.70;39.70;;;;;;4997107;28;20305;-70